sensor_id;sensor_type;location;lat;lon;timestamp;P1;durP1;ratioP1;P2;durP2;ratioP2
66593;SDS011;53450;42.584;23.366;2022-12-18T00:00:02;8.93;;;7.22;;
66593;SDS011;53450;42.584;23.366;2022-12-18T00:02:38;9.50;;;7.07;;
66593;SDS011;53450;42.584;23.366;2022-12-18T00:05:04;11.73;;;7.57;;
66593;SDS011;53450;42.584;23.366;2022-12-18T00:07:56;9.95;;;7.00;;
66593;SDS011;53450;42.584;23.366;2022-12-18T00:10:21;13.43;;;6.65;;
66593;SDS011;53450;42.584;23.366;2022-12-18T00:12:47;8.43;;;6.53;;
66593;SDS011;53450;42.584;23.366;2022-12-18T00:15:12;8.50;;;6.53;;
66593;SDS011;53450;42.584;23.366;2022-12-18T00:17:38;7.53;;;6.53;;
66593;SDS011;53450;42.584;23.366;2022-12-18T00:20:03;9.98;;;7.40;;
66593;SDS011;53450;42.584;23.366;2022-12-18T00:22:29;8.73;;;6.50;;
66593;SDS011;53450;42.584;23.366;2022-12-18T00:24:54;7.88;;;5.75;;
66593;SDS011;53450;42.584;23.366;2022-12-18T00:27:20;16.20;;;7.93;;
66593;SDS011;53450;42.584;23.366;2022-12-18T00:30:11;14.93;;;9.47;;
66593;SDS011;53450;42.584;23.366;2022-12-18T00:32:43;16.92;;;9.55;;
66593;SDS011;53450;42.584;23.366;2022-12-18T00:35:08;13.90;;;8.63;;
66593;SDS011;53450;42.584;23.366;2022-12-18T00:37:34;15.38;;;8.60;;
66593;SDS011;53450;42.584;23.366;2022-12-18T00:40:25;10.52;;;7.68;;
66593;SDS011;53450;42.584;23.366;2022-12-18T00:42:52;11.93;;;7.63;;
66593;SDS011;53450;42.584;23.366;2022-12-18T00:45:21;11.60;;;7.63;;
66593;SDS011;53450;42.584;23.366;2022-12-18T00:47:51;12.50;;;8.65;;
66593;SDS011;53450;42.584;23.366;2022-12-18T00:50:16;12.32;;;6.68;;
66593;SDS011;53450;42.584;23.366;2022-12-18T00:52:42;6.55;;;5.72;;
66593;SDS011;53450;42.584;23.366;2022-12-18T00:55:08;7.65;;;6.32;;
66593;SDS011;53450;42.584;23.366;2022-12-18T00:57:34;8.18;;;6.22;;
66593;SDS011;53450;42.584;23.366;2022-12-18T00:59:59;9.30;;;6.78;;
66593;SDS011;53450;42.584;23.366;2022-12-18T01:02:25;10.50;;;6.10;;
66593;SDS011;53450;42.584;23.366;2022-12-18T01:04:50;6.40;;;5.70;;
66593;SDS011;53450;42.584;23.366;2022-12-18T01:07:18;7.03;;;6.32;;
66593;SDS011;53450;42.584;23.366;2022-12-18T01:09:44;7.13;;;5.82;;
66593;SDS011;53450;42.584;23.366;2022-12-18T01:12:09;9.35;;;6.90;;
66593;SDS011;53450;42.584;23.366;2022-12-18T01:14:35;7.85;;;6.68;;
66593;SDS011;53450;42.584;23.366;2022-12-18T01:17:03;12.57;;;7.47;;
66593;SDS011;53450;42.584;23.366;2022-12-18T01:19:31;11.97;;;7.10;;
66593;SDS011;53450;42.584;23.366;2022-12-18T01:21:57;7.90;;;6.40;;
66593;SDS011;53450;42.584;23.366;2022-12-18T01:24:23;8.03;;;6.87;;
66593;SDS011;53450;42.584;23.366;2022-12-18T01:26:48;12.88;;;11.02;;
66593;SDS011;53450;42.584;23.366;2022-12-18T01:29:14;19.40;;;11.75;;
66593;SDS011;53450;42.584;23.366;2022-12-18T01:31:41;21.47;;;12.80;;
66593;SDS011;53450;42.584;23.366;2022-12-18T01:34:07;8.63;;;7.27;;
66593;SDS011;53450;42.584;23.366;2022-12-18T01:36:34;12.05;;;8.48;;
66593;SDS011;53450;42.584;23.366;2022-12-18T01:39:03;10.07;;;7.60;;
66593;SDS011;53450;42.584;23.366;2022-12-18T01:41:31;8.40;;;6.97;;
66593;SDS011;53450;42.584;23.366;2022-12-18T01:50:08;9.00;;;6.00;;
66593;SDS011;53450;42.584;23.366;2022-12-18T01:52:38;8.47;;;6.70;;
66593;SDS011;53450;42.584;23.366;2022-12-18T01:55:06;10.80;;;7.83;;
66593;SDS011;53450;42.584;23.366;2022-12-18T01:57:32;10.30;;;6.97;;
66593;SDS011;53450;42.584;23.366;2022-12-18T01:59:59;8.60;;;6.50;;
66593;SDS011;53450;42.584;23.366;2022-12-18T02:02:38;11.47;;;6.50;;
66593;SDS011;53450;42.584;23.366;2022-12-18T02:05:05;8.80;;;6.07;;
66593;SDS011;53450;42.584;23.366;2022-12-18T02:10:15;14.33;;;7.80;;
66593;SDS011;53450;42.584;23.366;2022-12-18T02:13:08;13.67;;;11.00;;
66593;SDS011;53450;42.584;23.366;2022-12-18T02:16:00;15.87;;;9.87;;
66593;SDS011;53450;42.584;23.366;2022-12-18T02:18:35;11.90;;;8.30;;
66593;SDS011;53450;42.584;23.366;2022-12-18T02:29:22;8.10;;;6.80;;
66593;SDS011;53450;42.584;23.366;2022-12-18T02:31:53;9.65;;;7.15;;
66593;SDS011;53450;42.584;23.366;2022-12-18T02:34:31;9.77;;;7.00;;
66593;SDS011;53450;42.584;23.366;2022-12-18T02:37:02;11.67;;;7.23;;
66593;SDS011;53450;42.584;23.366;2022-12-18T02:39:32;15.23;;;11.50;;
66593;SDS011;53450;42.584;23.366;2022-12-18T02:42:02;11.83;;;8.40;;
66593;SDS011;53450;42.584;23.366;2022-12-18T02:44:54;12.47;;;8.03;;
66593;SDS011;53450;42.584;23.366;2022-12-18T02:47:24;13.63;;;8.50;;
66593;SDS011;53450;42.584;23.366;2022-12-18T02:52:58;14.47;;;9.87;;
66593;SDS011;53450;42.584;23.366;2022-12-18T02:55:44;13.63;;;10.00;;
66593;SDS011;53450;42.584;23.366;2022-12-18T02:58:26;17.63;;;11.07;;
66593;SDS011;53450;42.584;23.366;2022-12-18T03:04:30;14.50;;;9.77;;
66593;SDS011;53450;42.584;23.366;2022-12-18T03:07:17;9.80;;;7.47;;
66593;SDS011;53450;42.584;23.366;2022-12-18T03:09:52;12.47;;;8.47;;
66593;SDS011;53450;42.584;23.366;2022-12-18T03:12:24;12.50;;;8.73;;
66593;SDS011;53450;42.584;23.366;2022-12-18T03:17:44;9.67;;;8.10;;
66593;SDS011;53450;42.584;23.366;2022-12-18T03:20:17;20.13;;;9.80;;
66593;SDS011;53450;42.584;23.366;2022-12-18T03:22:46;11.13;;;8.70;;
66593;SDS011;53450;42.584;23.366;2022-12-18T03:25:22;16.60;;;8.93;;
66593;SDS011;53450;42.584;23.366;2022-12-18T03:27:54;13.60;;;9.70;;
66593;SDS011;53450;42.584;23.366;2022-12-18T03:30:23;12.43;;;8.83;;
66593;SDS011;53450;42.584;23.366;2022-12-18T03:35:53;16.20;;;8.40;;
66593;SDS011;53450;42.584;23.366;2022-12-18T03:38:19;11.37;;;8.17;;
66593;SDS011;53450;42.584;23.366;2022-12-18T03:41:06;10.43;;;7.97;;
66593;SDS011;53450;42.584;23.366;2022-12-18T03:47:03;10.40;;;7.33;;
66593;SDS011;53450;42.584;23.366;2022-12-18T03:49:47;9.57;;;6.97;;
66593;SDS011;53450;42.584;23.366;2022-12-18T03:52:24;8.20;;;5.70;;
66593;SDS011;53450;42.584;23.366;2022-12-18T03:54:51;9.07;;;6.60;;
66593;SDS011;53450;42.584;23.366;2022-12-18T03:57:20;8.03;;;5.90;;
66593;SDS011;53450;42.584;23.366;2022-12-18T03:59:51;7.90;;;5.80;;
66593;SDS011;53450;42.584;23.366;2022-12-18T04:02:24;10.57;;;7.43;;
66593;SDS011;53450;42.584;23.366;2022-12-18T04:04:51;7.00;;;4.97;;
66593;SDS011;53450;42.584;23.366;2022-12-18T04:07:19;8.80;;;6.20;;
66593;SDS011;53450;42.584;23.366;2022-12-18T04:09:47;10.23;;;6.90;;
66593;SDS011;53450;42.584;23.366;2022-12-18T04:12:14;13.20;;;8.03;;
66593;SDS011;53450;42.584;23.366;2022-12-18T04:14:40;10.70;;;6.87;;
66593;SDS011;53450;42.584;23.366;2022-12-18T04:17:07;9.50;;;7.03;;
66593;SDS011;53450;42.584;23.366;2022-12-18T04:19:33;11.27;;;5.40;;
66593;SDS011;53450;42.584;23.366;2022-12-18T04:22:00;10.33;;;6.33;;
66593;SDS011;53450;42.584;23.366;2022-12-18T04:24:30;10.30;;;6.73;;
66593;SDS011;53450;42.584;23.366;2022-12-18T04:27:05;8.30;;;4.60;;
66593;SDS011;53450;42.584;23.366;2022-12-18T04:29:39;11.17;;;6.53;;
66593;SDS011;53450;42.584;23.366;2022-12-18T04:32:04;8.47;;;6.50;;
66593;SDS011;53450;42.584;23.366;2022-12-18T04:34:31;6.40;;;5.07;;
66593;SDS011;53450;42.584;23.366;2022-12-18T04:36:57;10.33;;;6.83;;
66593;SDS011;53450;42.584;23.366;2022-12-18T04:39:24;8.73;;;5.70;;
66593;SDS011;53450;42.584;23.366;2022-12-18T04:41:52;6.87;;;5.57;;
66593;SDS011;53450;42.584;23.366;2022-12-18T04:44:18;10.00;;;7.30;;
66593;SDS011;53450;42.584;23.366;2022-12-18T04:46:43;9.70;;;6.33;;
66593;SDS011;53450;42.584;23.366;2022-12-18T04:49:09;7.63;;;6.10;;
66593;SDS011;53450;42.584;23.366;2022-12-18T04:51:39;6.83;;;4.43;;
66593;SDS011;53450;42.584;23.366;2022-12-18T04:54:04;9.00;;;5.97;;
66593;SDS011;53450;42.584;23.366;2022-12-18T04:56:30;5.23;;;4.50;;
66593;SDS011;53450;42.584;23.366;2022-12-18T04:58:56;5.13;;;3.17;;
66593;SDS011;53450;42.584;23.366;2022-12-18T05:01:22;5.47;;;4.17;;
66593;SDS011;53450;42.584;23.366;2022-12-18T05:03:48;10.30;;;6.57;;
66593;SDS011;53450;42.584;23.366;2022-12-18T05:06:14;16.20;;;7.43;;
66593;SDS011;53450;42.584;23.366;2022-12-18T05:08:39;13.20;;;8.70;;
66593;SDS011;53450;42.584;23.366;2022-12-18T05:11:09;10.47;;;6.23;;
66593;SDS011;53450;42.584;23.366;2022-12-18T05:13:41;8.57;;;5.60;;
66593;SDS011;53450;42.584;23.366;2022-12-18T05:16:07;8.67;;;5.70;;
66593;SDS011;53450;42.584;23.366;2022-12-18T05:18:58;10.97;;;6.80;;
66593;SDS011;53450;42.584;23.366;2022-12-18T05:21:23;9.63;;;6.60;;
66593;SDS011;53450;42.584;23.366;2022-12-18T05:23:49;8.50;;;5.93;;
66593;SDS011;53450;42.584;23.366;2022-12-18T05:26:40;10.13;;;7.00;;
66593;SDS011;53450;42.584;23.366;2022-12-18T05:29:05;6.50;;;5.37;;
66593;SDS011;53450;42.584;23.366;2022-12-18T05:31:31;9.37;;;7.20;;
66593;SDS011;53450;42.584;23.366;2022-12-18T05:33:57;13.23;;;8.13;;
66593;SDS011;53450;42.584;23.366;2022-12-18T05:36:22;10.73;;;6.53;;
66593;SDS011;53450;42.584;23.366;2022-12-18T05:38:48;10.03;;;7.03;;
66593;SDS011;53450;42.584;23.366;2022-12-18T05:41:14;12.00;;;8.07;;
66593;SDS011;53450;42.584;23.366;2022-12-18T05:43:40;11.77;;;7.90;;
66593;SDS011;53450;42.584;23.366;2022-12-18T05:46:06;9.77;;;6.53;;
66593;SDS011;53450;42.584;23.366;2022-12-18T05:48:34;10.90;;;8.03;;
66593;SDS011;53450;42.584;23.366;2022-12-18T05:51:25;12.90;;;6.35;;
66593;SDS011;53450;42.584;23.366;2022-12-18T05:53:50;11.93;;;8.60;;
66593;SDS011;53450;42.584;23.366;2022-12-18T05:56:17;9.47;;;7.60;;
66593;SDS011;53450;42.584;23.366;2022-12-18T05:58:44;16.17;;;8.67;;
66593;SDS011;53450;42.584;23.366;2022-12-18T06:01:17;12.80;;;9.00;;
66593;SDS011;53450;42.584;23.366;2022-12-18T06:03:45;11.00;;;7.70;;
66593;SDS011;53450;42.584;23.366;2022-12-18T06:08:39;13.70;;;10.00;;
66593;SDS011;53450;42.584;23.366;2022-12-18T06:11:05;11.13;;;8.90;;
66593;SDS011;53450;42.584;23.366;2022-12-18T06:13:30;17.13;;;9.97;;
66593;SDS011;53450;42.584;23.366;2022-12-18T06:15:56;13.40;;;10.50;;
66593;SDS011;53450;42.584;23.366;2022-12-18T06:18:47;14.70;;;9.32;;
66593;SDS011;53450;42.584;23.366;2022-12-18T06:21:13;15.20;;;9.77;;
66593;SDS011;53450;42.584;23.366;2022-12-18T06:23:38;14.07;;;8.43;;
66593;SDS011;53450;42.584;23.366;2022-12-18T06:26:13;12.77;;;9.03;;
66593;SDS011;53450;42.584;23.366;2022-12-18T06:28:39;12.73;;;8.70;;
66593;SDS011;53450;42.584;23.366;2022-12-18T06:31:05;16.83;;;10.70;;
66593;SDS011;53450;42.584;23.366;2022-12-18T06:33:32;14.63;;;9.40;;
66593;SDS011;53450;42.584;23.366;2022-12-18T06:36:02;14.50;;;8.77;;
66593;SDS011;53450;42.584;23.366;2022-12-18T06:38:28;16.95;;;9.20;;
66593;SDS011;53450;42.584;23.366;2022-12-18T06:40:54;16.60;;;8.60;;
66593;SDS011;53450;42.584;23.366;2022-12-18T06:43:20;15.53;;;9.50;;
66593;SDS011;53450;42.584;23.366;2022-12-18T06:45:45;16.87;;;9.10;;
66593;SDS011;53450;42.584;23.366;2022-12-18T06:48:14;14.20;;;9.20;;
66593;SDS011;53450;42.584;23.366;2022-12-18T06:50:42;15.20;;;8.60;;
66593;SDS011;53450;42.584;23.366;2022-12-18T06:53:08;11.63;;;7.90;;
66593;SDS011;53450;42.584;23.366;2022-12-18T06:55:33;13.00;;;9.03;;
66593;SDS011;53450;42.584;23.366;2022-12-18T06:57:59;18.10;;;9.57;;
66593;SDS011;53450;42.584;23.366;2022-12-18T07:00:24;15.47;;;10.50;;
66593;SDS011;53450;42.584;23.366;2022-12-18T07:02:50;16.43;;;10.23;;
66593;SDS011;53450;42.584;23.366;2022-12-18T07:05:15;13.63;;;7.47;;
66593;SDS011;53450;42.584;23.366;2022-12-18T07:07:41;13.13;;;7.43;;
66593;SDS011;53450;42.584;23.366;2022-12-18T07:10:06;13.03;;;7.67;;
66593;SDS011;53450;42.584;23.366;2022-12-18T07:12:32;11.90;;;8.07;;
66593;SDS011;53450;42.584;23.366;2022-12-18T07:14:58;14.07;;;7.43;;
66593;SDS011;53450;42.584;23.366;2022-12-18T07:17:23;15.13;;;6.50;;
66593;SDS011;53450;42.584;23.366;2022-12-18T07:19:49;11.63;;;8.10;;
66593;SDS011;53450;42.584;23.366;2022-12-18T07:22:14;25.03;;;14.57;;
66593;SDS011;53450;42.584;23.366;2022-12-18T07:24:40;19.50;;;10.03;;
66593;SDS011;53450;42.584;23.366;2022-12-18T07:27:05;19.43;;;10.17;;
66593;SDS011;53450;42.584;23.366;2022-12-18T07:29:31;13.20;;;9.10;;
66593;SDS011;53450;42.584;23.366;2022-12-18T07:31:56;12.57;;;8.60;;
66593;SDS011;53450;42.584;23.366;2022-12-18T07:34:22;22.20;;;14.13;;
66593;SDS011;53450;42.584;23.366;2022-12-18T07:36:47;27.27;;;16.90;;
66593;SDS011;53450;42.584;23.366;2022-12-18T07:39:13;19.10;;;12.47;;
66593;SDS011;53450;42.584;23.366;2022-12-18T07:41:39;19.33;;;11.83;;
66593;SDS011;53450;42.584;23.366;2022-12-18T07:44:09;15.53;;;9.83;;
66593;SDS011;53450;42.584;23.366;2022-12-18T07:46:35;17.20;;;9.77;;
66593;SDS011;53450;42.584;23.366;2022-12-18T07:49:01;16.73;;;9.57;;
66593;SDS011;53450;42.584;23.366;2022-12-18T07:51:26;38.33;;;19.53;;
66593;SDS011;53450;42.584;23.366;2022-12-18T07:53:52;24.60;;;12.43;;
66593;SDS011;53450;42.584;23.366;2022-12-18T07:56:17;15.20;;;9.13;;
66593;SDS011;53450;42.584;23.366;2022-12-18T07:58:43;12.57;;;8.37;;
66593;SDS011;53450;42.584;23.366;2022-12-18T08:01:12;17.27;;;10.47;;
66593;SDS011;53450;42.584;23.366;2022-12-18T08:03:38;17.87;;;11.07;;
66593;SDS011;53450;42.584;23.366;2022-12-18T08:06:05;19.07;;;12.00;;
66593;SDS011;53450;42.584;23.366;2022-12-18T08:08:33;17.30;;;10.47;;
66593;SDS011;53450;42.584;23.366;2022-12-18T08:10:59;38.23;;;20.10;;
66593;SDS011;53450;42.584;23.366;2022-12-18T08:13:25;16.97;;;10.40;;
66593;SDS011;53450;42.584;23.366;2022-12-18T08:16:10;17.03;;;9.53;;
66593;SDS011;53450;42.584;23.366;2022-12-18T08:18:36;18.67;;;10.30;;
66593;SDS011;53450;42.584;23.366;2022-12-18T08:21:11;21.80;;;11.53;;
66593;SDS011;53450;42.584;23.366;2022-12-18T08:23:40;19.47;;;9.83;;
66593;SDS011;53450;42.584;23.366;2022-12-18T08:26:06;40.83;;;19.50;;
66593;SDS011;53450;42.584;23.366;2022-12-18T08:28:32;18.17;;;10.33;;
66593;SDS011;53450;42.584;23.366;2022-12-18T08:31:24;15.50;;;10.40;;
66593;SDS011;53450;42.584;23.366;2022-12-18T08:33:50;19.33;;;10.67;;
66593;SDS011;53450;42.584;23.366;2022-12-18T08:36:17;19.40;;;10.63;;
66593;SDS011;53450;42.584;23.366;2022-12-18T08:38:44;17.67;;;10.63;;
66593;SDS011;53450;42.584;23.366;2022-12-18T08:41:35;30.73;;;19.83;;
66593;SDS011;53450;42.584;23.366;2022-12-18T08:44:26;23.88;;;14.15;;
66593;SDS011;53450;42.584;23.366;2022-12-18T08:47:05;23.47;;;12.67;;
66593;SDS011;53450;42.584;23.366;2022-12-18T08:49:31;71.93;;;29.57;;
66593;SDS011;53450;42.584;23.366;2022-12-18T08:51:58;23.13;;;13.40;;
66593;SDS011;53450;42.584;23.366;2022-12-18T08:54:23;26.50;;;15.47;;
66593;SDS011;53450;42.584;23.366;2022-12-18T08:56:49;25.63;;;14.27;;
66593;SDS011;53450;42.584;23.366;2022-12-18T08:59:18;25.90;;;15.30;;
66593;SDS011;53450;42.584;23.366;2022-12-18T09:01:44;29.53;;;15.33;;
66593;SDS011;53450;42.584;23.366;2022-12-18T09:04:11;28.17;;;16.37;;
66593;SDS011;53450;42.584;23.366;2022-12-18T09:06:37;20.33;;;12.27;;
66593;SDS011;53450;42.584;23.366;2022-12-18T09:09:03;17.00;;;10.30;;
66593;SDS011;53450;42.584;23.366;2022-12-18T09:11:30;25.63;;;11.33;;
66593;SDS011;53450;42.584;23.366;2022-12-18T09:13:56;18.87;;;10.27;;
66593;SDS011;53450;42.584;23.366;2022-12-18T09:16:23;22.50;;;11.53;;
66593;SDS011;53450;42.584;23.366;2022-12-18T09:18:50;21.90;;;10.20;;
66593;SDS011;53450;42.584;23.366;2022-12-18T09:21:17;18.83;;;10.53;;
66593;SDS011;53450;42.584;23.366;2022-12-18T09:23:44;16.93;;;10.87;;
66593;SDS011;53450;42.584;23.366;2022-12-18T09:26:17;23.07;;;11.60;;
66593;SDS011;53450;42.584;23.366;2022-12-18T09:28:43;55.27;;;20.73;;
66593;SDS011;53450;42.584;23.366;2022-12-18T09:31:10;83.23;;;28.43;;
66593;SDS011;53450;42.584;23.366;2022-12-18T09:33:40;44.42;;;18.40;;
66593;SDS011;53450;42.584;23.366;2022-12-18T09:36:07;26.07;;;14.00;;
66593;SDS011;53450;42.584;23.366;2022-12-18T09:38:35;20.10;;;12.03;;
66593;SDS011;53450;42.584;23.366;2022-12-18T09:41:03;21.80;;;13.60;;
66593;SDS011;53450;42.584;23.366;2022-12-18T09:43:36;35.33;;;14.57;;
66593;SDS011;53450;42.584;23.366;2022-12-18T09:46:08;22.67;;;11.83;;
66593;SDS011;53450;42.584;23.366;2022-12-18T09:48:44;30.03;;;15.97;;
66593;SDS011;53450;42.584;23.366;2022-12-18T09:51:24;36.00;;;18.43;;
66593;SDS011;53450;42.584;23.366;2022-12-18T09:54:00;57.70;;;28.23;;
66593;SDS011;53450;42.584;23.366;2022-12-18T09:56:28;47.33;;;23.83;;
66593;SDS011;53450;42.584;23.366;2022-12-18T09:59:01;49.20;;;25.67;;
66593;SDS011;53450;42.584;23.366;2022-12-18T10:01:28;49.50;;;25.00;;
66593;SDS011;53450;42.584;23.366;2022-12-18T10:04:20;130.87;;;52.97;;
66593;SDS011;53450;42.584;23.366;2022-12-18T10:12:13;46.50;;;21.63;;
66593;SDS011;53450;42.584;23.366;2022-12-18T10:14:58;74.80;;;29.23;;
66593;SDS011;53450;42.584;23.366;2022-12-18T10:27:39;49.77;;;22.53;;
66593;SDS011;53450;42.584;23.366;2022-12-18T10:30:38;185.93;;;79.13;;
66593;SDS011;53450;42.584;23.366;2022-12-18T10:33:00;110.97;;;47.42;;
66593;SDS011;53450;42.584;23.366;2022-12-18T10:35:27;43.57;;;19.93;;
66593;SDS011;53450;42.584;23.366;2022-12-18T10:38:00;80.27;;;37.10;;
66593;SDS011;53450;42.584;23.366;2022-12-18T10:43:22;33.30;;;16.07;;
66593;SDS011;53450;42.584;23.366;2022-12-18T10:48:54;40.20;;;21.30;;
66593;SDS011;53450;42.584;23.366;2022-12-18T10:53:57;96.28;;;39.13;;
66593;SDS011;53450;42.584;23.366;2022-12-18T10:56:26;49.27;;;21.77;;
66593;SDS011;53450;42.584;23.366;2022-12-18T10:58:57;40.67;;;22.30;;
66593;SDS011;53450;42.584;23.366;2022-12-18T11:01:33;66.10;;;30.83;;
66593;SDS011;53450;42.584;23.366;2022-12-18T11:04:29;59.23;;;27.03;;
66593;SDS011;53450;42.584;23.366;2022-12-18T11:09:28;93.70;;;38.47;;
66593;SDS011;53450;42.584;23.366;2022-12-18T11:11:57;56.80;;;24.93;;
66593;SDS011;53450;42.584;23.366;2022-12-18T11:16:53;108.13;;;52.87;;
66593;SDS011;53450;42.584;23.366;2022-12-18T11:19:36;44.00;;;22.23;;
66593;SDS011;53450;42.584;23.366;2022-12-18T11:22:21;51.77;;;24.63;;
66593;SDS011;53450;42.584;23.366;2022-12-18T11:27:26;40.03;;;22.53;;
66593;SDS011;53450;42.584;23.366;2022-12-18T11:30:06;41.87;;;20.70;;
66593;SDS011;53450;42.584;23.366;2022-12-18T11:32:56;43.40;;;20.17;;
66593;SDS011;53450;42.584;23.366;2022-12-18T11:37:59;29.65;;;13.98;;
66593;SDS011;53450;42.584;23.366;2022-12-18T11:40:31;36.07;;;19.47;;
66593;SDS011;53450;42.584;23.366;2022-12-18T11:43:11;41.00;;;19.15;;
66593;SDS011;53450;42.584;23.366;2022-12-18T11:48:58;60.57;;;25.27;;
66593;SDS011;53450;42.584;23.366;2022-12-18T11:54:00;49.77;;;22.77;;
66593;SDS011;53450;42.584;23.366;2022-12-18T11:56:35;50.77;;;22.33;;
66593;SDS011;53450;42.584;23.366;2022-12-18T12:04:26;51.87;;;24.60;;
66593;SDS011;53450;42.584;23.366;2022-12-18T12:07:15;104.50;;;47.27;;
66593;SDS011;53450;42.584;23.366;2022-12-18T12:16:15;45.47;;;21.27;;
66593;SDS011;53450;42.584;23.366;2022-12-18T12:21:21;56.57;;;27.60;;
66593;SDS011;53450;42.584;23.366;2022-12-18T12:26:36;33.07;;;18.27;;
66593;SDS011;53450;42.584;23.366;2022-12-18T12:29:18;34.50;;;16.70;;
66593;SDS011;53450;42.584;23.366;2022-12-18T12:34:55;100.67;;;40.83;;
66593;SDS011;53450;42.584;23.366;2022-12-18T12:40:07;42.23;;;20.43;;
66593;SDS011;53450;42.584;23.366;2022-12-18T12:42:46;34.17;;;16.77;;
66593;SDS011;53450;42.584;23.366;2022-12-18T12:48:13;32.20;;;17.20;;
66593;SDS011;53450;42.584;23.366;2022-12-18T12:50:46;30.57;;;17.17;;
66593;SDS011;53450;42.584;23.366;2022-12-18T12:53:16;34.97;;;17.43;;
66593;SDS011;53450;42.584;23.366;2022-12-18T12:55:51;36.27;;;16.63;;
66593;SDS011;53450;42.584;23.366;2022-12-18T12:58:21;36.97;;;17.00;;
66593;SDS011;53450;42.584;23.366;2022-12-18T13:03:46;28.83;;;16.67;;
66593;SDS011;53450;42.584;23.366;2022-12-18T13:09:10;59.17;;;27.20;;
66593;SDS011;53450;42.584;23.366;2022-12-18T13:14:58;52.17;;;22.53;;
66593;SDS011;53450;42.584;23.366;2022-12-18T13:19:56;116.30;;;44.73;;
66593;SDS011;53450;42.584;23.366;2022-12-18T13:22:34;80.23;;;30.87;;
66593;SDS011;53450;42.584;23.366;2022-12-18T13:25:02;41.03;;;18.87;;
66593;SDS011;53450;42.584;23.366;2022-12-18T13:40:59;48.13;;;24.33;;
66593;SDS011;53450;42.584;23.366;2022-12-18T13:43:36;90.47;;;49.93;;
66593;SDS011;53450;42.584;23.366;2022-12-18T13:49:05;53.40;;;25.50;;
66593;SDS011;53450;42.584;23.366;2022-12-18T13:55:14;66.73;;;37.60;;
66593;SDS011;53450;42.584;23.366;2022-12-18T13:57:43;44.90;;;25.77;;
66593;SDS011;53450;42.584;23.366;2022-12-18T14:02:50;55.37;;;26.17;;
66593;SDS011;53450;42.584;23.366;2022-12-18T14:08:00;67.50;;;39.97;;
66593;SDS011;53450;42.584;23.366;2022-12-18T14:10:30;62.00;;;32.70;;
66593;SDS011;53450;42.584;23.366;2022-12-18T14:12:55;64.20;;;34.37;;
66593;SDS011;53450;42.584;23.366;2022-12-18T14:17:50;35.50;;;17.47;;
66593;SDS011;53450;42.584;23.366;2022-12-18T14:20:28;53.43;;;22.00;;
66593;SDS011;53450;42.584;23.366;2022-12-18T14:22:57;38.00;;;16.10;;
66593;SDS011;53450;42.584;23.366;2022-12-18T14:25:24;56.90;;;23.10;;
66593;SDS011;53450;42.584;23.366;2022-12-18T14:28:02;59.27;;;28.63;;
66593;SDS011;53450;42.584;23.366;2022-12-18T14:30:40;35.35;;;17.00;;
66593;SDS011;53450;42.584;23.366;2022-12-18T14:33:32;42.30;;;20.00;;
66593;SDS011;53450;42.584;23.366;2022-12-18T14:38:33;34.80;;;17.40;;
66593;SDS011;53450;42.584;23.366;2022-12-18T14:41:01;36.53;;;19.17;;
66593;SDS011;53450;42.584;23.366;2022-12-18T14:43:32;34.55;;;17.05;;
66593;SDS011;53450;42.584;23.366;2022-12-18T14:45:59;55.47;;;24.17;;
66593;SDS011;53450;42.584;23.366;2022-12-18T14:48:42;114.90;;;40.30;;
66593;SDS011;53450;42.584;23.366;2022-12-18T14:51:17;74.20;;;31.00;;
66593;SDS011;53450;42.584;23.366;2022-12-18T14:53:45;78.53;;;33.67;;
66593;SDS011;53450;42.584;23.366;2022-12-18T14:56:20;113.90;;;51.70;;
66593;SDS011;53450;42.584;23.366;2022-12-18T15:01:04;75.43;;;30.30;;
66593;SDS011;53450;42.584;23.366;2022-12-18T15:03:30;44.73;;;22.77;;
66593;SDS011;53450;42.584;23.366;2022-12-18T15:05:56;56.23;;;24.97;;
66593;SDS011;53450;42.584;23.366;2022-12-18T15:08:47;79.93;;;34.13;;
66593;SDS011;53450;42.584;23.366;2022-12-18T15:16:55;113.43;;;43.33;;
66593;SDS011;53450;42.584;23.366;2022-12-18T15:19:31;507.10;;;164.13;;
66593;SDS011;53450;42.584;23.366;2022-12-18T15:22:00;234.30;;;71.87;;
66593;SDS011;53450;42.584;23.366;2022-12-18T15:24:27;233.10;;;72.97;;
66593;SDS011;53450;42.584;23.366;2022-12-18T15:26:56;81.10;;;37.50;;
66593;SDS011;53450;42.584;23.366;2022-12-18T15:29:22;59.80;;;28.70;;
66593;SDS011;53450;42.584;23.366;2022-12-18T15:32:04;89.43;;;35.53;;
66593;SDS011;53450;42.584;23.366;2022-12-18T15:34:31;85.60;;;36.87;;
66593;SDS011;53450;42.584;23.366;2022-12-18T15:36:57;127.90;;;49.10;;
66593;SDS011;53450;42.584;23.366;2022-12-18T15:39:23;150.33;;;64.23;;
66593;SDS011;53450;42.584;23.366;2022-12-18T15:41:49;191.10;;;77.37;;
66593;SDS011;53450;42.584;23.366;2022-12-18T15:44:33;203.60;;;78.10;;
66593;SDS011;53450;42.584;23.366;2022-12-18T15:46:59;198.37;;;73.23;;
66593;SDS011;53450;42.584;23.366;2022-12-18T15:49:24;236.43;;;90.07;;
66593;SDS011;53450;42.584;23.366;2022-12-18T15:51:54;102.23;;;45.07;;
66593;SDS011;53450;42.584;23.366;2022-12-18T15:54:24;117.63;;;55.67;;
66593;SDS011;53450;42.584;23.366;2022-12-18T15:57:10;178.83;;;73.50;;
66593;SDS011;53450;42.584;23.366;2022-12-18T15:59:53;124.20;;;48.00;;
66593;SDS011;53450;42.584;23.366;2022-12-18T16:02:23;40.87;;;22.70;;
66593;SDS011;53450;42.584;23.366;2022-12-18T16:04:49;67.87;;;37.07;;
66593;SDS011;53450;42.584;23.366;2022-12-18T16:07:17;94.03;;;37.17;;
66593;SDS011;53450;42.584;23.366;2022-12-18T16:09:43;201.33;;;63.53;;
66593;SDS011;53450;42.584;23.366;2022-12-18T16:12:16;148.37;;;50.87;;
66593;SDS011;53450;42.584;23.366;2022-12-18T16:14:44;67.93;;;32.77;;
66593;SDS011;53450;42.584;23.366;2022-12-18T16:17:10;53.23;;;27.37;;
66593;SDS011;53450;42.584;23.366;2022-12-18T16:19:37;69.43;;;30.73;;
66593;SDS011;53450;42.584;23.366;2022-12-18T16:22:03;80.50;;;45.30;;
66593;SDS011;53450;42.584;23.366;2022-12-18T16:24:30;105.03;;;46.43;;
66593;SDS011;53450;42.584;23.366;2022-12-18T16:26:59;103.00;;;36.73;;
66593;SDS011;53450;42.584;23.366;2022-12-18T16:29:25;132.80;;;48.37;;
66593;SDS011;53450;42.584;23.366;2022-12-18T16:31:53;72.33;;;27.33;;
66593;SDS011;53450;42.584;23.366;2022-12-18T16:34:25;103.23;;;33.57;;
66593;SDS011;53450;42.584;23.366;2022-12-18T16:39:23;86.00;;;35.87;;
66593;SDS011;53450;42.584;23.366;2022-12-18T16:41:50;125.97;;;47.27;;
66593;SDS011;53450;42.584;23.366;2022-12-18T16:44:16;76.43;;;31.93;;
66593;SDS011;53450;42.584;23.366;2022-12-18T16:46:41;93.43;;;34.47;;
66593;SDS011;53450;42.584;23.366;2022-12-18T16:49:16;97.53;;;36.10;;
66593;SDS011;53450;42.584;23.366;2022-12-18T16:51:43;78.80;;;30.20;;
66593;SDS011;53450;42.584;23.366;2022-12-18T16:54:10;64.20;;;27.03;;
66593;SDS011;53450;42.584;23.366;2022-12-18T16:56:36;72.43;;;29.07;;
66593;SDS011;53450;42.584;23.366;2022-12-18T16:59:02;56.53;;;28.70;;
66593;SDS011;53450;42.584;23.366;2022-12-18T17:01:28;37.57;;;19.03;;
66593;SDS011;53450;42.584;23.366;2022-12-18T17:03:56;35.90;;;19.83;;
66593;SDS011;53450;42.584;23.366;2022-12-18T17:06:24;46.97;;;23.80;;